createdAt,value
2022-10-11T00:02:10.084Z,98210.81
2022-10-11T00:07:11.710Z,98222.44
2022-10-11T00:12:13.338Z,98228.22
2022-10-11T00:17:14.958Z,98239.44
2022-10-11T00:22:16.801Z,98238.19
2022-10-11T00:27:19.324Z,98240.69
2022-10-11T00:32:20.981Z,98246.47
2022-10-11T00:37:22.598Z,98244.97
2022-10-11T00:42:24.516Z,98255.84
2022-10-11T00:47:26.098Z,98267.22
2022-10-11T00:52:34.975Z,98276.00
2022-10-11T00:57:41.478Z,98281.69
2022-10-11T01:02:43.447Z,98277.63
2022-10-11T01:07:46.916Z,98284.91
2022-10-11T01:13:25.820Z,98295.63
2022-10-11T01:18:49.986Z,98301.63
2022-10-11T01:24:15.643Z,98301.03
2022-10-11T01:29:44.960Z,98294.72
2022-10-11T01:34:57.546Z,98295.03
2022-10-11T01:40:06.189Z,98310.00
2022-10-11T01:45:12.602Z,98309.78
2022-10-11T01:50:35.650Z,98326.69
2022-10-11T01:55:52.981Z,98338.09
2022-10-11T02:01:03.599Z,98336.97
2022-10-11T02:06:14.170Z,98329.13
2022-10-11T02:11:22.247Z,98338.09
2022-10-11T02:16:31.069Z,98342.34
2022-10-11T02:21:36.000Z,98343.66
2022-10-11T02:26:41.746Z,98341.72
2022-10-11T02:31:45.162Z,98355.56
2022-10-11T02:37:04.110Z,98362.06
2022-10-11T02:42:12.743Z,98362.75
2022-10-11T02:47:14.886Z,98368.78
2022-10-11T02:52:16.458Z,98386.22
2022-10-11T02:57:18.099Z,98378.06
2022-10-11T03:02:19.667Z,98381.66
2022-10-11T03:07:21.265Z,98391.28
2022-10-11T03:12:22.967Z,98398.13
2022-10-11T03:17:36.010Z,98405.78
2022-10-11T03:22:38.706Z,98406.44
2022-10-11T03:27:40.308Z,98408.72
2022-10-11T03:32:43.479Z,98412.63
2022-10-11T03:37:45.248Z,98417.97
2022-10-11T03:42:46.825Z,98423.34
2022-10-11T03:47:48.418Z,98431.47
2022-10-11T03:52:50.138Z,98444.16
2022-10-11T03:57:51.678Z,98445.97
2022-10-11T04:02:53.291Z,98456.16
2022-10-11T04:07:54.895Z,98470.28
2022-10-11T04:12:56.461Z,98473.19
2022-10-11T04:17:58.162Z,98482.78
2022-10-11T04:22:59.767Z,98485.84
2022-10-11T04:28:01.384Z,98488.94
2022-10-11T04:33:03.085Z,98487.13
2022-10-11T04:38:04.774Z,98484.84
2022-10-11T04:43:06.335Z,98496.06
2022-10-11T04:48:08.075Z,98494.25
2022-10-11T04:53:09.627Z,98505.31
2022-10-11T04:58:11.187Z,98511.47
2022-10-11T05:03:12.744Z,98517.78
2022-10-11T05:08:14.348Z,98528.31
2022-10-11T05:13:15.888Z,98533.50
2022-10-11T05:18:17.563Z,98534.41
2022-10-11T05:23:19.178Z,98549.50
2022-10-11T05:28:20.939Z,98543.94
2022-10-11T05:33:22.625Z,98549.69
2022-10-11T05:38:24.423Z,98559.19
2022-10-11T05:43:26.345Z,98559.69
2022-10-11T05:48:28.552Z,98567.34
2022-10-11T05:53:30.294Z,98574.06
2022-10-11T05:58:31.864Z,98585.59
2022-10-11T06:03:33.420Z,98588.75
2022-10-11T06:08:35.071Z,98594.31
2022-10-11T06:13:36.943Z,98600.88
2022-10-11T06:18:38.569Z,98608.72
2022-10-11T06:23:40.211Z,98612.81
2022-10-11T06:28:41.843Z,98614.03
2022-10-11T06:33:43.451Z,98619.81
2022-10-11T06:38:45.602Z,98625.38
2022-10-11T06:43:49.414Z,98642.00
2022-10-11T06:48:51.335Z,98644.38
2022-10-11T06:53:56.726Z,98644.75
2022-10-11T06:58:59.398Z,98657.41
2022-10-11T07:04:01.652Z,98655.28
2022-10-11T07:09:04.930Z,98660.31
2022-10-11T07:14:07.968Z,98669.97
2022-10-11T07:19:10.481Z,98672.25
2022-10-11T07:24:12.073Z,98674.41
2022-10-11T07:29:13.701Z,98679.38
2022-10-11T07:34:15.925Z,98685.03
2022-10-11T07:39:17.499Z,98688.13
2022-10-11T07:44:19.098Z,98684.81
2022-10-11T07:49:20.669Z,98687.72
2022-10-11T07:54:22.220Z,98695.19
2022-10-11T07:59:23.784Z,98697.72
2022-10-11T08:04:26.421Z,98707.41
2022-10-11T08:09:28.133Z,98710.28
2022-10-11T08:14:29.728Z,98707.44
2022-10-11T08:19:31.339Z,98713.19
2022-10-11T08:24:37.997Z,98712.03
2022-10-11T08:29:39.924Z,98718.91
2022-10-11T08:34:41.554Z,98715.66
2022-10-11T08:39:43.113Z,98718.53
2022-10-11T08:45:10.100Z,98721.50
2022-10-11T08:50:20.139Z,98718.06
2022-10-11T08:55:30.738Z,98725.81
2022-10-11T09:00:36.222Z,98728.16
2022-10-11T09:05:57.969Z,98725.09
2022-10-11T09:11:08.770Z,98725.53
2022-10-11T09:16:48.873Z,98718.50
2022-10-11T09:22:16.529Z,98722.63
2022-10-11T09:27:33.043Z,98723.66
2022-10-11T09:32:48.046Z,98729.41
2022-10-11T09:38:00.684Z,98728.44
2022-10-11T09:43:02.281Z,98723.25
2022-10-11T09:48:07.255Z,98723.22
2022-10-11T09:53:08.864Z,98728.59
2022-10-11T09:58:32.588Z,98734.72
2022-10-11T10:03:36.501Z,98729.22
2022-10-11T10:08:38.178Z,98736.63
2022-10-11T10:13:46.166Z,98727.84
2022-10-11T10:19:00.028Z,98735.13
2022-10-11T10:24:08.288Z,98732.16
2022-10-11T10:29:09.804Z,98745.13
2022-10-11T10:34:16.115Z,98749.56
2022-10-11T10:39:33.755Z,98740.22
2022-10-11T10:44:35.401Z,98746.13
2022-10-11T10:49:54.506Z,98748.81
2022-10-11T10:55:03.659Z,98741.66
2022-10-11T11:00:11.460Z,98743.53
2022-10-11T11:05:34.891Z,98742.06
2022-10-11T11:10:43.583Z,98748.13
2022-10-11T11:16:10.529Z,98747.75
2022-10-11T11:21:27.108Z,98749.50
2022-10-11T11:26:44.663Z,98737.91
2022-10-11T11:32:21.413Z,98735.91
2022-10-11T11:37:28.534Z,98730.88
2022-10-11T11:42:37.122Z,98731.38
2022-10-11T11:47:43.887Z,98733.22
2022-10-11T11:52:48.659Z,98731.59
2022-10-11T11:58:09.122Z,98733.34
2022-10-11T12:03:17.094Z,98728.25
2022-10-11T12:08:32.177Z,98717.44
2022-10-11T12:13:37.248Z,98718.22
2022-10-11T12:18:53.948Z,98716.38
2022-10-11T12:23:58.878Z,98707.88
2022-10-11T12:29:06.418Z,98711.31
2022-10-11T12:34:07.970Z,98706.06
2022-10-11T12:39:18.678Z,98705.44
2022-10-11T12:44:28.688Z,98716.03
2022-10-11T12:49:31.136Z,98710.75
2022-10-11T12:54:57.678Z,98708.88
2022-10-11T13:00:18.262Z,98707.34
2022-10-11T13:05:36.459Z,98706.63
2022-10-11T13:10:43.889Z,98707.31
2022-10-11T13:15:46.007Z,98703.56
2022-10-11T13:20:47.676Z,98694.47
2022-10-11T13:25:51.109Z,98695.56
2022-10-11T13:30:55.873Z,98688.91
2022-10-11T13:35:58.497Z,98684.75
2022-10-11T13:41:03.917Z,98686.00
2022-10-11T13:46:06.064Z,98683.78
2022-10-11T13:51:16.892Z,98680.94
2022-10-11T13:56:19.359Z,98684.06
2022-10-11T14:01:47.426Z,98680.72
2022-10-11T14:06:53.590Z,98679.03
2022-10-11T14:11:56.302Z,98672.34
2022-10-11T14:17:04.071Z,98675.72
2022-10-11T14:22:07.346Z,98673.22
2022-10-11T14:27:19.265Z,98671.06
2022-10-11T14:32:29.729Z,98681.22
2022-10-11T14:37:31.402Z,98675.81
2022-10-11T14:42:32.952Z,98668.09
2022-10-11T14:47:40.554Z,98681.53
2022-10-11T14:52:44.310Z,98674.09
2022-10-11T14:57:46.486Z,98681.66
2022-10-11T15:02:49.636Z,98681.16
2022-10-11T15:07:51.737Z,98675.13
2022-10-11T15:12:54.886Z,98681.31
2022-10-11T15:17:58.886Z,98692.22
2022-10-11T15:23:04.037Z,98685.34
2022-10-11T15:28:06.478Z,98685.34
2022-10-11T15:33:08.715Z,98689.16
2022-10-11T15:38:18.240Z,98689.41
2022-10-11T15:43:24.469Z,98693.22
2022-10-11T15:48:27.107Z,98683.13
2022-10-11T15:53:32.511Z,98683.84
2022-10-11T15:58:36.922Z,98688.72
2022-10-11T16:03:38.626Z,98689.66
2022-10-11T16:08:40.356Z,98694.63
2022-10-11T16:13:42.003Z,98699.44
2022-10-11T16:18:43.576Z,98704.03
2022-10-11T16:23:45.177Z,98705.63
2022-10-11T16:28:47.994Z,98707.09
2022-10-11T16:33:50.344Z,98707.06
2022-10-11T16:38:51.960Z,98701.53
2022-10-11T16:43:54.844Z,98708.16
2022-10-11T16:48:56.492Z,98708.13
2022-10-11T16:53:58.084Z,98702.97
2022-10-11T16:58:59.714Z,98703.09
2022-10-11T17:04:01.411Z,98708.00
2022-10-11T17:09:03.746Z,98703.34
2022-10-11T17:14:06.111Z,98703.84
2022-10-11T17:19:15.374Z,98708.31
2022-10-11T17:24:16.963Z,98712.59
2022-10-11T17:29:18.629Z,98712.22
2022-10-11T17:34:20.268Z,98719.25
2022-10-11T17:39:23.543Z,98721.94
2022-10-11T17:44:25.085Z,98720.41
2022-10-11T17:49:26.695Z,98723.13
2022-10-11T17:54:28.263Z,98722.25
2022-10-11T17:59:31.840Z,98715.97
2022-10-11T18:04:33.473Z,98720.47
2022-10-11T18:09:35.063Z,98717.00
2022-10-11T18:14:36.714Z,98711.09
2022-10-11T18:19:38.287Z,98716.72
2022-10-11T18:24:41.449Z,98711.69
2022-10-11T18:29:43.536Z,98715.00
2022-10-11T18:34:45.102Z,98711.38
2022-10-11T18:39:46.831Z,98712.91
2022-10-11T18:44:48.430Z,98716.72
2022-10-11T18:49:50.031Z,98709.09
2022-10-11T18:54:51.635Z,98710.63
2022-10-11T18:59:53.232Z,98711.69
2022-10-11T19:04:55.067Z,98710.53
2022-10-11T19:09:56.890Z,98713.34
2022-10-11T19:14:58.536Z,98708.09
2022-10-11T19:20:00.189Z,98707.72
2022-10-11T19:25:01.733Z,98705.84
2022-10-11T19:30:03.660Z,98701.03
2022-10-11T19:35:05.844Z,98702.34
2022-10-11T19:40:08.082Z,98705.47
2022-10-11T19:45:09.818Z,98709.72
2022-10-11T19:50:11.443Z,98709.22
2022-10-11T19:55:13.080Z,98715.09
2022-10-11T20:00:14.978Z,98709.22
2022-10-11T20:05:16.723Z,98712.38
2022-10-11T20:10:18.427Z,98712.38
2022-10-11T20:15:20.015Z,98708.47
2022-10-11T20:20:21.576Z,98704.72
2022-10-11T20:25:23.167Z,98706.00
2022-10-11T20:30:24.807Z,98707.47
2022-10-11T20:35:26.355Z,98698.06
2022-10-11T20:40:27.943Z,98711.66
2022-10-11T20:45:29.499Z,98719.72
2022-10-11T20:50:31.085Z,98719.78
2022-10-11T20:55:32.678Z,98728.63
2022-10-11T21:00:34.249Z,98712.00
2022-10-11T21:05:35.859Z,98713.88
2022-10-11T21:10:37.927Z,98707.19
2022-10-11T21:15:39.494Z,98706.53
2022-10-11T21:20:42.020Z,98711.56
2022-10-11T21:25:43.585Z,98714.78
2022-10-11T21:30:45.278Z,98713.25
2022-10-11T21:35:46.844Z,98728.63
2022-10-11T21:40:48.436Z,98718.34
2022-10-11T21:45:50.007Z,98711.66
2022-10-11T21:50:53.141Z,98714.66
2022-10-11T21:55:58.739Z,98721.44
2022-10-11T22:01:00.667Z,98724.13
2022-10-11T22:06:03.488Z,98718.47
2022-10-11T22:11:05.942Z,98714.25
2022-10-11T22:16:09.600Z,98722.38
2022-10-11T22:21:22.695Z,98716.13
2022-10-11T22:26:27.060Z,98711.72
2022-10-11T22:31:29.565Z,98717.06
2022-10-11T22:36:31.106Z,98721.50
2022-10-11T22:41:32.635Z,98714.38
2022-10-11T22:46:34.296Z,98715.81
2022-10-11T22:51:35.913Z,98715.19
2022-10-11T22:56:37.454Z,98715.41
2022-10-11T23:01:39.008Z,98720.84
2022-10-11T23:06:40.803Z,98705.06
2022-10-11T23:11:42.426Z,98703.94
2022-10-11T23:16:43.976Z,98704.97
2022-10-11T23:21:46.571Z,98698.50
2022-10-11T23:26:48.174Z,98700.88
2022-10-11T23:31:51.320Z,98704.09
2022-10-11T23:36:52.886Z,98704.63
2022-10-11T23:41:54.761Z,98710.50
2022-10-11T23:46:56.310Z,98714.41
2022-10-11T23:51:57.888Z,98712.25
2022-10-11T23:56:59.570Z,98704.13
